createdAt,value
2019-05-29T00:00:33.519Z,1.95
2019-05-29T00:01:38.247Z,2.15
2019-05-29T00:02:43.119Z,3.12
2019-05-29T00:03:48.041Z,2.00
2019-05-29T00:04:53.147Z,1.90
2019-05-29T00:05:57.835Z,1.82
2019-05-29T00:07:02.740Z,2.00
2019-05-29T00:08:08.217Z,2.20
2019-05-29T00:09:14.306Z,2.20
2019-05-29T00:10:19.316Z,2.37
2019-05-29T00:11:24.168Z,2.20
2019-05-29T00:12:28.813Z,2.12
2019-05-29T00:13:33.701Z,2.58
2019-05-29T00:14:38.465Z,2.60
2019-05-29T00:15:43.416Z,3.42
2019-05-29T00:16:48.087Z,2.58
2019-05-29T00:17:52.939Z,2.72
2019-05-29T00:18:58.384Z,2.30
2019-05-29T00:20:03.721Z,2.40
2019-05-29T00:21:08.673Z,2.85
2019-05-29T00:22:14.484Z,2.70
2019-05-29T00:23:19.692Z,2.75
2019-05-29T00:24:25.221Z,3.30
2019-05-29T00:25:30.256Z,3.25
2019-05-29T00:26:35.132Z,2.60
2019-05-29T00:27:39.886Z,2.60
2019-05-29T00:28:44.757Z,3.15
2019-05-29T00:29:49.429Z,2.83
2019-05-29T00:30:54.342Z,2.55
2019-05-29T00:31:59.168Z,3.20
2019-05-29T00:33:04.033Z,2.72
2019-05-29T00:34:08.973Z,3.22
2019-05-29T00:35:14.393Z,2.52
2019-05-29T00:36:19.192Z,4.47
2019-05-29T00:37:24.114Z,2.60
2019-05-29T00:38:28.853Z,3.12
2019-05-29T00:39:33.704Z,2.62
2019-05-29T00:40:38.408Z,2.55
2019-05-29T00:41:43.496Z,3.05
2019-05-29T00:42:48.174Z,2.70
2019-05-29T00:43:53.031Z,2.60
2019-05-29T00:44:57.715Z,2.92
2019-05-29T00:46:02.746Z,2.98
2019-05-29T00:47:07.546Z,2.95
2019-05-29T00:48:12.401Z,3.12
2019-05-29T00:49:18.058Z,2.50
2019-05-29T00:50:23.246Z,2.72
2019-05-29T00:51:28.193Z,2.47
2019-05-29T00:52:33.078Z,2.60
2019-05-29T00:53:37.980Z,2.37
2019-05-29T00:54:43.212Z,2.30
2019-05-29T00:55:47.914Z,2.50
2019-05-29T00:56:52.775Z,2.50
2019-05-29T00:57:57.442Z,2.80
2019-05-29T00:59:02.325Z,2.52
2019-05-29T01:00:08.940Z,2.60
2019-05-29T01:01:14.009Z,2.58
2019-05-29T01:02:19.800Z,2.33
2019-05-29T01:03:24.755Z,2.83
2019-05-29T01:04:29.454Z,3.30
2019-05-29T01:05:34.337Z,3.10
2019-05-29T01:06:38.993Z,2.47
2019-05-29T01:07:43.925Z,2.90
2019-05-29T01:08:48.592Z,2.62
2019-05-29T01:09:53.456Z,2.62
2019-05-29T01:10:58.208Z,2.27
2019-05-29T01:12:03.093Z,3.60
2019-05-29T01:13:07.852Z,2.60
2019-05-29T01:14:13.113Z,4.78
2019-05-29T01:15:19.464Z,2.90
2019-05-29T01:16:24.436Z,5.40
2019-05-29T01:17:29.104Z,2.22
2019-05-29T01:18:34.106Z,2.33
2019-05-29T01:19:38.912Z,3.12
2019-05-29T01:20:43.757Z,3.75
2019-05-29T01:21:48.553Z,2.75
2019-05-29T01:22:53.485Z,2.40
2019-05-29T01:23:58.248Z,3.20
2019-05-29T01:25:03.346Z,3.42
2019-05-29T01:26:08.401Z,2.52
2019-05-29T01:27:13.271Z,3.12
2019-05-29T01:28:18.958Z,2.85
2019-05-29T01:29:24.104Z,2.92
2019-05-29T01:30:29.031Z,2.40
2019-05-29T01:31:34.086Z,2.47
2019-05-29T01:32:38.774Z,3.05
2019-05-29T01:33:43.640Z,2.62
2019-05-29T01:34:48.548Z,2.92
2019-05-29T01:35:53.411Z,2.67
2019-05-29T01:36:58.068Z,2.83
2019-05-29T01:38:02.920Z,2.60
2019-05-29T01:39:08.050Z,2.58
2019-05-29T01:40:20.138Z,2.72
2019-05-29T01:41:19.948Z,2.55
2019-05-29T01:42:24.790Z,2.60
2019-05-29T01:43:29.541Z,2.77
2019-05-29T01:44:34.603Z,2.50
2019-05-29T01:45:39.293Z,2.58
2019-05-29T01:46:44.172Z,2.40
2019-05-29T01:47:48.868Z,3.25
2019-05-29T01:48:53.826Z,2.60
2019-05-29T01:49:58.779Z,2.08
2019-05-29T01:51:03.639Z,2.58
2019-05-29T01:52:08.300Z,2.50
2019-05-29T01:53:13.265Z,2.35
2019-05-29T01:54:17.929Z,3.05
2019-05-29T01:55:23.815Z,2.33
2019-05-29T01:56:28.759Z,3.45
2019-05-29T01:57:33.606Z,2.52
2019-05-29T01:58:38.338Z,2.37
2019-05-29T01:59:43.262Z,3.20
2019-05-29T02:00:48.043Z,2.55
2019-05-29T02:01:52.944Z,2.75
2019-05-29T02:02:57.689Z,2.22
2019-05-29T02:04:02.738Z,2.65
2019-05-29T02:05:07.996Z,3.33
2019-05-29T02:06:12.891Z,2.70
2019-05-29T02:07:17.959Z,3.45
2019-05-29T02:08:24.187Z,2.75
2019-05-29T02:09:29.115Z,3.30
2019-05-29T02:10:34.032Z,2.85
2019-05-29T02:11:38.875Z,2.50
2019-05-29T02:12:44.001Z,2.87
2019-05-29T02:13:48.814Z,2.87
2019-05-29T02:14:53.923Z,2.80
2019-05-29T02:15:58.584Z,2.70
2019-05-29T02:17:03.538Z,2.87
2019-05-29T02:18:08.386Z,2.70
2019-05-29T02:19:13.252Z,3.37
2019-05-29T02:20:19.032Z,3.27
2019-05-29T02:21:24.384Z,3.37
2019-05-29T02:22:29.052Z,3.30
2019-05-29T02:23:34.033Z,3.15
2019-05-29T02:24:38.767Z,2.83
2019-05-29T02:25:43.640Z,2.62
2019-05-29T02:26:48.301Z,2.77
2019-05-29T02:27:53.234Z,2.60
2019-05-29T02:28:57.916Z,2.72
2019-05-29T02:30:02.846Z,3.05
2019-05-29T02:31:07.572Z,3.10
2019-05-29T02:32:12.432Z,2.70
2019-05-29T02:33:17.574Z,3.00
2019-05-29T02:34:24.885Z,2.90
2019-05-29T02:35:29.736Z,3.12
2019-05-29T02:36:34.642Z,2.85
2019-05-29T02:37:39.344Z,2.80
2019-05-29T02:38:44.275Z,2.92
2019-05-29T02:39:48.986Z,3.33
2019-05-29T02:40:53.920Z,2.70
2019-05-29T02:41:58.727Z,2.60
2019-05-29T02:43:03.581Z,3.35
2019-05-29T02:44:08.417Z,3.05
2019-05-29T02:45:13.802Z,2.95
2019-05-29T02:46:19.451Z,2.83
2019-05-29T02:47:26.032Z,2.72
2019-05-29T02:48:31.795Z,2.92
2019-05-29T02:49:37.082Z,2.83
2019-05-29T02:50:41.916Z,3.67
2019-05-29T02:51:46.997Z,2.90
2019-05-29T02:52:51.652Z,2.92
2019-05-29T02:53:56.595Z,2.80
2019-05-29T02:55:01.490Z,2.65
2019-05-29T02:56:06.364Z,3.00
2019-05-29T02:57:11.034Z,2.98
2019-05-29T02:58:15.935Z,3.12
2019-05-29T02:59:21.099Z,3.30
2019-05-29T03:00:56.921Z,3.15
2019-05-29T03:02:01.615Z,2.62
2019-05-29T03:03:06.547Z,3.30
2019-05-29T03:04:11.506Z,3.02
2019-05-29T03:05:16.388Z,3.25
2019-05-29T03:06:22.313Z,4.10
2019-05-29T03:07:28.554Z,2.90
2019-05-29T03:08:34.378Z,3.50
2019-05-29T03:09:40.077Z,3.50
2019-05-29T03:10:44.917Z,3.20
2019-05-29T03:11:49.788Z,4.33
2019-05-29T03:12:54.533Z,4.00
2019-05-29T03:13:59.558Z,3.50
2019-05-29T03:15:06.323Z,4.25
2019-05-29T03:16:12.840Z,4.08
2019-05-29T03:17:17.815Z,5.00
2019-05-29T03:18:23.961Z,4.30
2019-05-29T03:19:30.343Z,4.42
2019-05-29T03:20:35.952Z,3.98
2019-05-29T03:21:40.775Z,5.10
2019-05-29T03:22:45.632Z,3.90
2019-05-29T03:23:50.338Z,4.67
2019-05-29T03:24:55.552Z,4.15
2019-05-29T03:26:00.378Z,4.15
2019-05-29T03:27:05.640Z,4.65
2019-05-29T03:28:10.634Z,4.40
2019-05-29T03:29:15.533Z,4.22
2019-05-29T03:30:20.273Z,4.55
2019-05-29T03:31:30.072Z,4.53
2019-05-29T03:32:39.278Z,4.00
2019-05-29T03:33:47.813Z,4.03
2019-05-29T03:34:47.042Z,3.50
2019-05-29T03:35:51.373Z,4.08
2019-05-29T03:36:56.036Z,3.87
2019-05-29T03:38:01.099Z,3.95
2019-05-29T03:39:07.304Z,4.30
2019-05-29T03:40:12.307Z,3.72
2019-05-29T03:41:16.973Z,5.25
2019-05-29T03:42:21.847Z,4.08
2019-05-29T03:43:28.419Z,3.98
2019-05-29T03:44:35.332Z,4.30
2019-05-29T03:45:40.012Z,4.25
2019-05-29T03:46:46.111Z,3.90
2019-05-29T03:47:51.053Z,3.92
2019-05-29T03:48:56.036Z,4.28
2019-05-29T03:50:00.845Z,3.77
2019-05-29T03:51:05.681Z,3.72
2019-05-29T03:52:10.478Z,4.05
2019-05-29T03:53:15.329Z,4.10
2019-05-29T03:54:20.000Z,4.22
2019-05-29T03:55:24.884Z,4.35
2019-05-29T03:56:30.628Z,3.85
2019-05-29T03:57:35.926Z,4.05
2019-05-29T03:58:41.395Z,4.25
2019-05-29T03:59:46.270Z,4.72
2019-05-29T04:00:51.069Z,3.75
2019-05-29T04:01:56.056Z,4.15
2019-05-29T04:03:00.812Z,3.95
2019-05-29T04:04:05.791Z,4.12
2019-05-29T04:05:11.922Z,4.10
2019-05-29T04:06:16.969Z,4.58
2019-05-29T04:07:21.712Z,4.15
2019-05-29T04:08:27.418Z,5.45
2019-05-29T04:09:33.336Z,4.15
2019-05-29T04:10:39.779Z,5.17
2019-05-29T04:11:44.917Z,4.03
2019-05-29T04:12:49.777Z,3.62
2019-05-29T04:13:54.787Z,4.20
2019-05-29T04:14:59.679Z,3.62
2019-05-29T04:16:04.570Z,3.75
2019-05-29T04:17:10.650Z,3.95
2019-05-29T04:18:19.669Z,4.35
2019-05-29T04:19:27.631Z,3.47
2019-05-29T04:20:36.078Z,4.03
2019-05-29T04:21:43.245Z,4.12
2019-05-29T04:22:50.641Z,3.95
2019-05-29T04:23:57.970Z,4.53
2019-05-29T04:25:05.330Z,5.12
2019-05-29T04:26:12.769Z,4.50
2019-05-29T04:27:20.212Z,3.67
2019-05-29T04:28:25.472Z,3.95
2019-05-29T04:29:30.190Z,3.62
2019-05-29T04:30:36.498Z,3.67
2019-05-29T04:31:41.561Z,3.98
2019-05-29T04:32:46.438Z,3.83
2019-05-29T04:33:51.215Z,3.95
2019-05-29T04:34:56.081Z,4.72
2019-05-29T04:36:01.052Z,4.25
2019-05-29T04:37:07.455Z,4.47
2019-05-29T04:38:12.318Z,4.42
2019-05-29T04:39:17.274Z,4.05
2019-05-29T04:40:21.952Z,4.50
2019-05-29T04:41:28.798Z,4.47
2019-05-29T04:42:34.030Z,3.77
2019-05-29T04:43:40.017Z,4.20
2019-05-29T04:44:44.904Z,4.33
2019-05-29T04:45:49.771Z,4.50
2019-05-29T04:47:09.414Z,4.97
2019-05-29T04:48:01.069Z,4.00
2019-05-29T04:49:05.751Z,4.12
2019-05-29T04:50:10.786Z,4.12
2019-05-29T04:51:15.445Z,3.90
2019-05-29T04:52:20.395Z,4.62
2019-05-29T04:53:25.243Z,4.12
2019-05-29T04:54:31.070Z,4.55
2019-05-29T04:55:37.003Z,3.62
2019-05-29T04:56:42.133Z,3.85
2019-05-29T04:57:50.523Z,3.95
2019-05-29T04:58:53.557Z,3.95
2019-05-29T04:59:58.416Z,7.25
2019-05-29T05:01:03.467Z,4.40
2019-05-29T05:02:08.370Z,3.77
2019-05-29T05:03:13.754Z,4.03
2019-05-29T05:04:18.460Z,4.03
2019-05-29T05:05:23.352Z,4.22
2019-05-29T05:06:29.045Z,4.05
2019-05-29T05:07:33.995Z,4.05
2019-05-29T05:08:39.654Z,4.05
2019-05-29T05:09:44.930Z,3.80
2019-05-29T05:10:49.755Z,3.90
2019-05-29T05:11:54.897Z,4.05
2019-05-29T05:12:59.678Z,3.72
2019-05-29T05:14:06.086Z,3.90
2019-05-29T05:15:11.208Z,4.10
2019-05-29T05:16:16.064Z,4.22
2019-05-29T05:17:26.117Z,3.95
2019-05-29T05:18:27.458Z,5.03
2019-05-29T05:19:32.283Z,4.20
2019-05-29T05:20:38.283Z,3.90
2019-05-29T05:21:43.246Z,4.00
2019-05-29T05:22:48.287Z,4.00
2019-05-29T05:23:53.062Z,3.85
2019-05-29T05:24:57.987Z,3.95
2019-05-29T05:26:02.768Z,4.12
2019-05-29T05:27:07.625Z,3.87
2019-05-29T05:28:12.324Z,4.08
2019-05-29T05:29:17.439Z,4.05
2019-05-29T05:30:22.377Z,4.37
2019-05-29T05:31:27.459Z,4.20
2019-05-29T05:32:32.650Z,4.08
2019-05-29T05:33:38.662Z,4.10
2019-05-29T05:34:43.663Z,4.12
2019-05-29T05:35:49.571Z,4.00
2019-05-29T05:36:54.267Z,3.98
2019-05-29T05:37:59.122Z,3.83
2019-05-29T05:39:05.336Z,4.78
2019-05-29T05:40:10.509Z,3.77
2019-05-29T05:41:15.192Z,4.12
2019-05-29T05:42:20.244Z,3.77
2019-05-29T05:43:25.294Z,3.67
2019-05-29T05:44:30.758Z,3.72
2019-05-29T05:45:37.024Z,3.92
2019-05-29T05:46:42.002Z,3.55
2019-05-29T05:47:56.970Z,4.03
2019-05-29T05:48:54.065Z,4.05
2019-05-29T05:49:58.897Z,3.67
2019-05-29T05:51:03.829Z,3.95
2019-05-29T05:52:08.583Z,4.60
2019-05-29T05:53:13.733Z,3.87
2019-05-29T05:54:18.766Z,3.85
2019-05-29T05:55:23.632Z,4.40
2019-05-29T05:56:28.372Z,3.70
2019-05-29T05:57:33.557Z,3.70
2019-05-29T05:58:39.836Z,4.08
2019-05-29T05:59:45.339Z,3.62
2019-05-29T06:00:50.186Z,4.65
2019-05-29T06:01:55.055Z,4.15
2019-05-29T06:02:59.958Z,3.60
2019-05-29T06:04:05.349Z,3.67
2019-05-29T06:05:11.170Z,3.47
2019-05-29T06:06:16.093Z,3.70
2019-05-29T06:07:20.795Z,3.92
2019-05-29T06:08:25.664Z,3.70
2019-05-29T06:09:30.343Z,3.62
2019-05-29T06:10:36.133Z,3.77
2019-05-29T06:11:40.907Z,3.87
2019-05-29T06:12:45.767Z,4.97
2019-05-29T06:13:50.470Z,3.80
2019-05-29T06:14:55.313Z,3.70
2019-05-29T06:16:00.027Z,3.98
2019-05-29T06:17:05.014Z,3.58
2019-05-29T06:18:20.582Z,3.77
2019-05-29T06:19:16.412Z,3.52
2019-05-29T06:20:21.233Z,3.90
2019-05-29T06:21:26.089Z,3.83
2019-05-29T06:22:30.783Z,4.05
2019-05-29T06:23:36.905Z,3.67
2019-05-29T06:24:43.139Z,3.87
2019-05-29T06:25:48.390Z,3.75
2019-05-29T06:26:53.254Z,3.80
2019-05-29T06:27:58.107Z,4.62
2019-05-29T06:29:02.830Z,3.90
2019-05-29T06:30:09.301Z,3.47
2019-05-29T06:31:14.049Z,3.52
2019-05-29T06:32:18.931Z,3.65
2019-05-29T06:33:23.579Z,3.40
2019-05-29T06:34:28.463Z,3.30
2019-05-29T06:35:34.135Z,3.70
2019-05-29T06:36:39.740Z,4.72
2019-05-29T06:37:44.498Z,4.10
2019-05-29T06:38:49.350Z,3.72
2019-05-29T06:39:54.072Z,3.60
2019-05-29T06:40:59.014Z,3.10
2019-05-29T06:42:03.673Z,3.45
2019-05-29T06:43:12.093Z,3.05
2019-05-29T06:44:16.875Z,2.95
2019-05-29T06:45:24.967Z,3.22
2019-05-29T06:46:29.780Z,2.90
2019-05-29T06:47:36.263Z,4.10
2019-05-29T06:48:53.624Z,3.67
2019-05-29T06:49:47.938Z,3.42
2019-05-29T06:50:56.392Z,3.40
2019-05-29T06:51:59.431Z,3.60
2019-05-29T06:53:04.194Z,3.52
2019-05-29T06:54:09.071Z,3.80
2019-05-29T06:55:13.903Z,3.12
2019-05-29T06:56:19.010Z,3.47
2019-05-29T06:57:25.961Z,3.10
2019-05-29T06:58:30.449Z,3.50
2019-05-29T06:59:36.090Z,3.22
2019-05-29T07:00:41.194Z,2.87
2019-05-29T07:01:47.598Z,4.40
2019-05-29T07:02:52.602Z,2.80
2019-05-29T07:04:11.381Z,2.98
2019-05-29T07:05:05.832Z,3.10
2019-05-29T07:06:10.548Z,4.15
2019-05-29T07:07:15.451Z,3.20
2019-05-29T07:08:35.236Z,3.33
2019-05-29T07:09:26.686Z,3.08
2019-05-29T07:10:31.377Z,5.33
2019-05-29T07:11:37.097Z,3.22
2019-05-29T07:12:42.428Z,3.37
2019-05-29T07:13:50.103Z,3.22
2019-05-29T07:14:53.750Z,3.12
2019-05-29T07:15:58.607Z,4.10
2019-05-29T07:17:03.263Z,3.45
2019-05-29T07:18:08.112Z,3.27
2019-05-29T07:19:45.368Z,3.80
2019-05-29T07:20:19.422Z,4.28
2019-05-29T07:21:24.112Z,3.45
2019-05-29T07:22:28.940Z,3.83
2019-05-29T07:23:33.604Z,4.25
2019-05-29T07:24:38.787Z,3.02
2019-05-29T07:25:43.591Z,3.40
2019-05-29T07:26:49.103Z,3.30
2019-05-29T07:27:53.773Z,3.42
2019-05-29T07:29:07.935Z,3.65
2019-05-29T07:30:06.342Z,4.10
2019-05-29T07:31:11.231Z,3.83
2019-05-29T07:32:15.893Z,5.45
2019-05-29T07:33:20.749Z,4.08
2019-05-29T07:34:25.412Z,4.53
2019-05-29T07:35:30.382Z,3.80
2019-05-29T07:36:35.052Z,3.52
2019-05-29T07:37:39.897Z,3.37
2019-05-29T07:38:54.825Z,3.10
2019-05-29T07:39:51.145Z,2.65
2019-05-29T07:40:55.817Z,3.22
2019-05-29T07:42:00.785Z,2.75
2019-05-29T07:43:05.536Z,3.72
2019-05-29T07:44:10.386Z,3.08
2019-05-29T07:45:16.644Z,3.05
2019-05-29T07:46:21.545Z,2.35
2019-05-29T07:47:26.460Z,2.60
2019-05-29T07:48:31.355Z,3.30
2019-05-29T07:49:39.911Z,2.50
2019-05-29T07:50:42.632Z,3.15
2019-05-29T07:51:48.645Z,2.80
2019-05-29T07:52:53.920Z,3.00
2019-05-29T07:53:58.724Z,3.15
2019-05-29T07:55:04.849Z,3.27
2019-05-29T07:56:22.174Z,2.67
2019-05-29T07:57:16.077Z,2.83
2019-05-29T07:58:20.782Z,3.22
2019-05-29T07:59:28.600Z,3.17
2019-05-29T08:00:35.905Z,2.87
2019-05-29T08:01:38.714Z,3.62
2019-05-29T08:02:43.725Z,2.83
2019-05-29T08:03:49.660Z,3.10
2019-05-29T08:04:54.744Z,2.70
2019-05-29T08:05:59.776Z,2.72
2019-05-29T08:07:04.840Z,2.75
2019-05-29T08:08:09.725Z,3.40
2019-05-29T08:09:14.534Z,3.12
2019-05-29T08:10:20.036Z,3.10
2019-05-29T08:11:24.818Z,3.00
2019-05-29T08:12:29.853Z,2.75
2019-05-29T08:13:34.608Z,2.67
2019-05-29T08:14:39.687Z,3.05
2019-05-29T08:15:58.446Z,2.95
2019-05-29T08:16:51.182Z,20.35
2019-05-29T08:17:56.112Z,11.28
2019-05-29T08:19:01.458Z,6.60
2019-05-29T08:20:08.040Z,5.15
2019-05-29T08:21:13.001Z,3.80
2019-05-29T08:22:33.205Z,3.05
2019-05-29T08:23:24.427Z,2.80
2019-05-29T08:24:29.124Z,3.08
2019-05-29T08:25:34.180Z,2.70
2019-05-29T08:26:40.659Z,2.75
2019-05-29T08:27:46.616Z,2.40
2019-05-29T08:28:51.676Z,3.05
2019-05-29T08:29:56.567Z,2.55
2019-05-29T08:31:01.320Z,3.08
2019-05-29T08:32:06.246Z,2.42
2019-05-29T08:33:10.912Z,2.52
2019-05-29T08:34:15.792Z,2.40
2019-05-29T08:35:20.673Z,2.40
2019-05-29T08:36:25.733Z,2.52
2019-05-29T08:37:30.403Z,2.10
2019-05-29T08:38:35.262Z,2.52
2019-05-29T08:39:41.101Z,2.30
2019-05-29T08:40:47.325Z,2.40
2019-05-29T08:42:18.232Z,2.40
2019-05-29T08:42:59.172Z,2.12
2019-05-29T08:44:04.098Z,1.80
2019-05-29T08:45:09.588Z,2.47
2019-05-29T08:46:14.275Z,2.10
2019-05-29T08:47:19.122Z,2.10
2019-05-29T08:48:23.821Z,2.45
2019-05-29T08:49:28.785Z,2.35
2019-05-29T08:50:33.619Z,2.55
2019-05-29T08:51:38.496Z,2.40
2019-05-29T08:52:43.924Z,2.10
2019-05-29T08:53:51.866Z,2.10
2019-05-29T08:54:55.411Z,2.02
2019-05-29T08:56:00.307Z,2.62
2019-05-29T08:57:05.642Z,2.25
2019-05-29T08:58:10.607Z,2.00
2019-05-29T08:59:15.517Z,1.85
2019-05-29T09:00:21.207Z,2.35
2019-05-29T09:01:26.111Z,2.15
2019-05-29T09:02:30.989Z,2.30
2019-05-29T09:03:35.658Z,2.47
2019-05-29T09:04:40.524Z,2.47
2019-05-29T09:05:46.568Z,2.22
2019-05-29T09:06:53.101Z,2.05
2019-05-29T09:07:58.173Z,2.35
2019-05-29T09:09:03.033Z,2.45
2019-05-29T09:10:08.673Z,2.40
2019-05-29T09:11:13.544Z,2.10
2019-05-29T09:12:18.207Z,2.40
2019-05-29T09:13:23.148Z,2.10
2019-05-29T09:14:30.590Z,2.70
2019-05-29T09:15:35.526Z,2.02
2019-05-29T09:16:40.362Z,2.05
2019-05-29T09:17:45.232Z,2.37
2019-05-29T09:18:49.912Z,1.85
2019-05-29T09:19:54.793Z,2.20
2019-05-29T09:21:03.233Z,2.92
2019-05-29T09:22:06.042Z,2.10
2019-05-29T09:23:10.724Z,2.20
2019-05-29T09:24:16.355Z,2.05
2019-05-29T09:25:23.161Z,2.75
2019-05-29T09:26:28.354Z,2.10
2019-05-29T09:27:33.015Z,2.12
2019-05-29T09:28:37.969Z,2.40
2019-05-29T09:29:42.660Z,2.22
2019-05-29T09:30:48.199Z,2.40
2019-05-29T09:31:53.080Z,2.92
2019-05-29T09:32:57.937Z,2.33
2019-05-29T09:34:02.620Z,2.33
2019-05-29T09:35:08.059Z,2.20
2019-05-29T09:36:13.957Z,2.30
2019-05-29T09:37:20.423Z,3.40
2019-05-29T09:38:25.672Z,1.92
2019-05-29T09:39:30.506Z,2.00
2019-05-29T09:40:35.596Z,1.85
2019-05-29T09:41:40.447Z,1.87
2019-05-29T09:42:45.142Z,2.17
2019-05-29T09:43:59.399Z,2.08
2019-05-29T09:44:56.403Z,2.00
2019-05-29T09:46:02.289Z,1.87
2019-05-29T09:47:08.082Z,2.15
2019-05-29T09:48:13.011Z,3.08
2019-05-29T09:49:18.389Z,2.00
2019-05-29T09:50:25.482Z,2.05
2019-05-29T09:51:30.232Z,2.00
2019-05-29T09:52:35.110Z,2.02
2019-05-29T09:53:39.931Z,1.90
2019-05-29T09:54:44.794Z,2.12
2019-05-29T09:55:49.538Z,1.67
2019-05-29T09:56:56.178Z,1.95
2019-05-29T09:58:00.886Z,2.42
2019-05-29T09:59:05.805Z,2.10
2019-05-29T10:00:11.255Z,1.87
2019-05-29T10:01:23.544Z,4.70
2019-05-29T10:02:22.500Z,2.20
2019-05-29T10:03:27.378Z,1.98
2019-05-29T10:04:32.138Z,2.00
2019-05-29T10:05:37.212Z,2.17
2019-05-29T10:06:42.015Z,2.30
2019-05-29T10:07:47.151Z,2.20
2019-05-29T10:08:54.115Z,2.52
2019-05-29T10:10:00.529Z,1.90
2019-05-29T10:11:10.456Z,2.50
2019-05-29T10:12:12.196Z,1.90
2019-05-29T10:13:16.931Z,2.62
2019-05-29T10:14:21.774Z,1.80
2019-05-29T10:15:26.515Z,2.10
2019-05-29T10:16:31.425Z,2.72
2019-05-29T10:17:36.349Z,2.00
2019-05-29T10:18:41.563Z,1.80
2019-05-29T10:19:46.438Z,1.90
2019-05-29T10:20:51.352Z,1.98
2019-05-29T10:21:56.845Z,1.98
2019-05-29T10:23:03.116Z,1.82
2019-05-29T10:24:08.055Z,1.65
2019-05-29T10:25:13.831Z,1.80
2019-05-29T10:26:18.623Z,2.22
2019-05-29T10:27:23.560Z,1.80
2019-05-29T10:28:48.390Z,2.17
2019-05-29T10:29:34.878Z,2.05
2019-05-29T10:30:39.548Z,2.20
2019-05-29T10:31:45.827Z,2.17
2019-05-29T10:32:52.699Z,1.67
2019-05-29T10:33:58.026Z,1.80
2019-05-29T10:35:02.711Z,1.90
2019-05-29T10:36:07.588Z,1.90
2019-05-29T10:37:12.249Z,1.40
2019-05-29T10:38:17.167Z,1.60
2019-05-29T10:39:21.959Z,1.50
2019-05-29T10:40:26.857Z,1.47
2019-05-29T10:41:31.535Z,1.92
2019-05-29T10:42:36.465Z,1.72
2019-05-29T10:43:41.244Z,1.70
2019-05-29T10:44:46.911Z,1.60
2019-05-29T10:45:52.113Z,1.60
2019-05-29T10:46:57.198Z,1.50
2019-05-29T10:48:02.071Z,1.60
2019-05-29T10:49:07.108Z,1.70
2019-05-29T10:50:12.786Z,1.40
2019-05-29T10:51:17.767Z,1.57
2019-05-29T10:52:22.563Z,1.45
2019-05-29T10:53:27.484Z,1.50
2019-05-29T10:54:32.153Z,1.15
2019-05-29T10:55:37.066Z,1.42
2019-05-29T10:56:42.221Z,1.37
2019-05-29T10:57:48.826Z,1.40
2019-05-29T10:58:59.325Z,1.40
2019-05-29T11:00:00.312Z,1.30
2019-05-29T11:01:05.001Z,1.40
2019-05-29T11:02:09.992Z,1.40
2019-05-29T11:03:14.661Z,1.50
2019-05-29T11:04:19.588Z,1.50
2019-05-29T11:05:24.297Z,1.60
2019-05-29T11:06:29.290Z,1.47
2019-05-29T11:07:33.954Z,1.87
2019-05-29T11:08:38.826Z,1.63
2019-05-29T11:09:44.992Z,1.57
2019-05-29T11:10:50.266Z,1.67
2019-05-29T11:11:55.290Z,1.80
2019-05-29T11:13:01.511Z,1.50
2019-05-29T11:14:06.214Z,1.50
2019-05-29T11:15:21.553Z,2.07
2019-05-29T11:16:17.881Z,1.43
2019-05-29T11:17:22.875Z,1.70
2019-05-29T11:18:27.658Z,1.50
2019-05-29T11:19:32.667Z,1.50
2019-05-29T11:20:37.414Z,1.40
2019-05-29T11:21:42.467Z,1.40
2019-05-29T11:22:47.556Z,1.40
2019-05-29T11:23:53.865Z,1.30
2019-05-29T11:25:18.856Z,1.20
2019-05-29T11:26:08.661Z,1.50
2019-05-29T11:27:13.556Z,1.30
2019-05-29T11:28:18.514Z,1.13
2019-05-29T11:29:23.305Z,1.50
2019-05-29T11:30:28.204Z,1.43
2019-05-29T11:31:32.884Z,1.50
2019-05-29T11:32:37.800Z,1.40
2019-05-29T11:33:42.464Z,1.30
2019-05-29T11:34:47.328Z,1.30
2019-05-29T11:36:00.837Z,1.40
2019-05-29T11:36:58.773Z,1.43
2019-05-29T11:38:03.459Z,1.60
2019-05-29T11:39:09.366Z,1.53
2019-05-29T11:40:14.603Z,1.50
2019-05-29T11:41:26.441Z,1.50
2019-05-29T11:42:27.947Z,1.47
2019-05-29T11:43:32.742Z,1.80
2019-05-29T11:44:37.481Z,1.60
2019-05-29T11:45:42.387Z,1.33
2019-05-29T11:46:47.152Z,1.87
2019-05-29T11:47:53.678Z,2.77
2019-05-29T11:48:59.366Z,2.60
2019-05-29T11:50:18.813Z,1.53
2019-05-29T11:51:13.913Z,1.53
2019-05-29T11:52:24.678Z,1.30
2019-05-29T11:53:25.375Z,1.70
2019-05-29T11:54:30.392Z,2.17
2019-05-29T11:55:35.071Z,1.50
2019-05-29T11:56:39.963Z,1.40
2019-05-29T11:57:44.639Z,1.33
2019-05-29T11:58:50.725Z,1.97
2019-05-29T11:59:56.041Z,1.50
2019-05-29T12:01:02.498Z,2.13
2019-05-29T12:02:07.278Z,1.70
2019-05-29T12:03:12.496Z,1.50
2019-05-29T12:04:25.441Z,1.23
2019-05-29T12:05:24.766Z,1.70
2019-05-29T12:06:29.649Z,1.47
2019-05-29T12:07:34.630Z,1.43
2019-05-29T12:08:39.521Z,1.60
2019-05-29T12:09:44.681Z,1.40
2019-05-29T12:10:49.683Z,1.50
2019-05-29T12:11:55.954Z,1.63
2019-05-29T12:13:01.701Z,1.67
2019-05-29T12:14:06.812Z,1.20
2019-05-29T12:15:15.769Z,1.37
2019-05-29T12:16:18.384Z,1.73
2019-05-29T12:17:23.135Z,1.30
2019-05-29T12:18:28.105Z,1.53
2019-05-29T12:19:32.849Z,1.90
2019-05-29T12:20:37.704Z,1.47
2019-05-29T12:21:42.937Z,1.40
2019-05-29T12:23:12.769Z,1.43
2019-05-29T12:23:54.418Z,1.00
2019-05-29T12:25:00.581Z,1.20
2019-05-29T12:26:20.039Z,1.43
2019-05-29T12:27:12.198Z,1.60
2019-05-29T12:28:16.946Z,2.10
2019-05-29T12:29:21.987Z,1.60
2019-05-29T12:30:27.088Z,1.52
2019-05-29T12:31:32.013Z,2.93
2019-05-29T12:32:36.757Z,1.10
2019-05-29T12:33:41.696Z,1.70
2019-05-29T12:34:53.649Z,1.30
2019-05-29T12:35:53.321Z,1.40
2019-05-29T12:36:57.988Z,1.30
2019-05-29T12:38:03.557Z,1.60
2019-05-29T12:39:08.733Z,2.75
2019-05-29T12:40:13.745Z,1.25
2019-05-29T12:41:18.620Z,1.70
2019-05-29T12:42:23.498Z,3.40
2019-05-29T12:43:28.397Z,6.87
2019-05-29T12:44:33.506Z,9.80
2019-05-29T12:45:38.196Z,4.55
2019-05-29T12:46:43.081Z,3.33
2019-05-29T12:47:47.772Z,2.42
2019-05-29T12:48:53.425Z,2.25
2019-05-29T12:49:58.134Z,2.00
2019-05-29T12:51:04.106Z,1.80
2019-05-29T12:52:10.025Z,2.58
2019-05-29T12:53:29.669Z,2.37
2019-05-29T12:54:21.619Z,2.37
2019-05-29T12:55:26.564Z,1.70
2019-05-29T12:56:31.231Z,2.27
2019-05-29T12:57:36.100Z,1.80
2019-05-29T12:58:40.777Z,2.12
2019-05-29T12:59:45.878Z,1.50
2019-05-29T13:00:51.087Z,1.90
2019-05-29T13:01:56.220Z,1.70
2019-05-29T13:03:02.886Z,1.70
2019-05-29T13:04:07.624Z,1.62
2019-05-29T13:05:19.781Z,1.90
2019-05-29T13:06:19.670Z,1.80
2019-05-29T13:07:24.403Z,1.95
2019-05-29T13:08:29.294Z,2.20
2019-05-29T13:09:34.090Z,1.70
2019-05-29T13:10:38.964Z,1.92
2019-05-29T13:11:43.785Z,1.95
2019-05-29T13:12:48.701Z,1.92
2019-05-29T13:13:54.340Z,1.67
2019-05-29T13:15:00.647Z,2.70
2019-05-29T13:16:05.662Z,2.45
2019-05-29T13:17:10.842Z,2.15
2019-05-29T13:18:15.567Z,2.08
2019-05-29T13:19:20.431Z,1.95
2019-05-29T13:20:25.302Z,1.80
2019-05-29T13:21:30.346Z,3.30
2019-05-29T13:22:35.080Z,1.70
2019-05-29T13:23:45.165Z,2.25
2019-05-29T13:24:46.358Z,1.90
2019-05-29T13:25:51.335Z,1.70
2019-05-29T13:26:57.417Z,1.80
2019-05-29T13:28:03.113Z,1.80
2019-05-29T13:29:37.424Z,4.33
2019-05-29T13:30:42.333Z,2.85
2019-05-29T13:31:47.063Z,1.60
2019-05-29T13:32:52.195Z,1.80
2019-05-29T13:33:57.799Z,1.85
2019-05-29T13:35:04.237Z,1.65
2019-05-29T13:36:09.196Z,1.85
2019-05-29T13:37:14.097Z,1.70
2019-05-29T13:38:19.100Z,1.90
2019-05-29T13:39:24.143Z,1.70
2019-05-29T13:40:28.874Z,1.70
2019-05-29T13:41:33.775Z,1.98
2019-05-29T13:42:38.903Z,1.65
2019-05-29T13:43:43.835Z,1.72
2019-05-29T13:44:48.873Z,1.87
2019-05-29T13:45:53.848Z,1.90
2019-05-29T13:46:59.890Z,2.22
2019-05-29T13:48:05.537Z,1.80
2019-05-29T13:49:10.420Z,2.55
2019-05-29T13:50:16.153Z,1.90
2019-05-29T13:51:21.222Z,2.20
2019-05-29T13:52:26.152Z,1.95
2019-05-29T13:53:30.907Z,1.70
2019-05-29T13:54:35.921Z,1.75
2019-05-29T13:55:40.779Z,1.92
2019-05-29T13:56:45.739Z,2.02
2019-05-29T13:57:50.750Z,1.60
2019-05-29T13:58:55.745Z,1.47
2019-05-29T14:00:00.417Z,1.55
2019-05-29T14:01:06.376Z,2.05
2019-05-29T14:02:11.514Z,1.30
2019-05-29T14:03:16.398Z,1.62
2019-05-29T14:04:21.275Z,1.50
2019-05-29T14:05:26.243Z,1.40
2019-05-29T14:06:31.073Z,1.50
2019-05-29T14:07:35.965Z,1.37
2019-05-29T14:08:41.022Z,1.30
2019-05-29T14:09:45.974Z,1.40
2019-05-29T14:10:50.740Z,1.62
2019-05-29T14:11:55.778Z,1.37
2019-05-29T14:13:01.006Z,1.30
2019-05-29T14:14:07.966Z,1.05
2019-05-29T14:15:15.026Z,1.50
2019-05-29T14:16:20.251Z,1.52
2019-05-29T14:17:25.195Z,1.55
2019-05-29T14:18:30.326Z,1.40
2019-05-29T14:19:35.099Z,1.80
2019-05-29T14:20:40.185Z,1.60
2019-05-29T14:21:45.276Z,1.40
2019-05-29T14:22:50.147Z,1.40
2019-05-29T14:23:54.948Z,1.62
2019-05-29T14:25:01.120Z,2.10
2019-05-29T14:26:06.551Z,1.60
2019-05-29T14:27:12.744Z,2.05
2019-05-29T14:28:17.913Z,1.50
2019-05-29T14:29:22.814Z,1.55